sensor_id;sensor_type;location;lat;lon;timestamp;temperature;humidity
21108;DHT22;10712;52.944;9.098;2023-07-31T00:02:21;15.60;92.00
21108;DHT22;10712;52.944;9.098;2023-07-31T00:04:47;15.50;92.00
21108;DHT22;10712;52.944;9.098;2023-07-31T00:07:14;15.50;92.00
21108;DHT22;10712;52.944;9.098;2023-07-31T00:09:40;15.50;92.10
21108;DHT22;10712;52.944;9.098;2023-07-31T00:12:06;15.50;92.20
21108;DHT22;10712;52.944;9.098;2023-07-31T00:14:32;15.50;92.20
21108;DHT22;10712;52.944;9.098;2023-07-31T00:16:58;15.50;92.30
21108;DHT22;10712;52.944;9.098;2023-07-31T00:19:24;15.50;92.40
21108;DHT22;10712;52.944;9.098;2023-07-31T00:21:49;15.50;92.40
21108;DHT22;10712;52.944;9.098;2023-07-31T00:24:15;15.60;92.50
21108;DHT22;10712;52.944;9.098;2023-07-31T00:26:41;15.60;92.60
21108;DHT22;10712;52.944;9.098;2023-07-31T00:29:07;15.60;92.60
21108;DHT22;10712;52.944;9.098;2023-07-31T00:31:33;15.60;92.70
21108;DHT22;10712;52.944;9.098;2023-07-31T00:33:58;15.60;92.70
21108;DHT22;10712;52.944;9.098;2023-07-31T00:36:24;15.60;92.80
21108;DHT22;10712;52.944;9.098;2023-07-31T00:38:50;15.60;92.80
21108;DHT22;10712;52.944;9.098;2023-07-31T00:41:16;15.60;92.90
21108;DHT22;10712;52.944;9.098;2023-07-31T00:43:41;15.60;92.90
21108;DHT22;10712;52.944;9.098;2023-07-31T00:46:07;15.60;93.00
21108;DHT22;10712;52.944;9.098;2023-07-31T00:48:34;15.70;93.00
21108;DHT22;10712;52.944;9.098;2023-07-31T00:51:01;15.70;93.00
21108;DHT22;10712;52.944;9.098;2023-07-31T00:53:27;15.70;93.10
21108;DHT22;10712;52.944;9.098;2023-07-31T00:55:54;15.70;93.20
21108;DHT22;10712;52.944;9.098;2023-07-31T00:58:19;15.70;93.20
21108;DHT22;10712;52.944;9.098;2023-07-31T01:00:45;15.70;93.20
21108;DHT22;10712;52.944;9.098;2023-07-31T01:03:11;15.70;93.20
21108;DHT22;10712;52.944;9.098;2023-07-31T01:11:30;15.70;93.30
21108;DHT22;10712;52.944;9.098;2023-07-31T01:13:58;15.70;93.30
21108;DHT22;10712;52.944;9.098;2023-07-31T01:16:27;15.70;93.20
21108;DHT22;10712;52.944;9.098;2023-07-31T01:18:53;15.70;93.20
21108;DHT22;10712;52.944;9.098;2023-07-31T01:30:04;15.70;93.30
21108;DHT22;10712;52.944;9.098;2023-07-31T01:32:39;15.70;93.30
21108;DHT22;10712;52.944;9.098;2023-07-31T01:35:07;15.70;93.30
21108;DHT22;10712;52.944;9.098;2023-07-31T01:37:34;15.70;93.30
21108;DHT22;10712;52.944;9.098;2023-07-31T01:40:01;15.70;93.30
21108;DHT22;10712;52.944;9.098;2023-07-31T01:42:27;15.70;93.30
21108;DHT22;10712;52.944;9.098;2023-07-31T01:44:52;15.80;93.30
21108;DHT22;10712;52.944;9.098;2023-07-31T01:47:19;15.80;93.30
21108;DHT22;10712;52.944;9.098;2023-07-31T01:49:44;15.70;93.20
21108;DHT22;10712;52.944;9.098;2023-07-31T01:52:10;15.80;93.30
21108;DHT22;10712;52.944;9.098;2023-07-31T01:54:36;15.80;93.20
21108;DHT22;10712;52.944;9.098;2023-07-31T01:57:02;15.80;93.20
21108;DHT22;10712;52.944;9.098;2023-07-31T01:59:28;15.80;93.30
21108;DHT22;10712;52.944;9.098;2023-07-31T02:01:54;15.80;93.30
21108;DHT22;10712;52.944;9.098;2023-07-31T02:04:20;15.80;93.30
21108;DHT22;10712;52.944;9.098;2023-07-31T02:06:46;15.80;93.40
21108;DHT22;10712;52.944;9.098;2023-07-31T02:09:12;15.80;93.40
21108;DHT22;10712;52.944;9.098;2023-07-31T02:11:37;15.80;93.40
21108;DHT22;10712;52.944;9.098;2023-07-31T02:14:03;15.70;93.50
21108;DHT22;10712;52.944;9.098;2023-07-31T02:16:29;15.70;93.60
21108;DHT22;10712;52.944;9.098;2023-07-31T02:18:55;15.70;93.70
21108;DHT22;10712;52.944;9.098;2023-07-31T02:21:20;15.70;93.70
21108;DHT22;10712;52.944;9.098;2023-07-31T02:23:46;15.70;93.70
21108;DHT22;10712;52.944;9.098;2023-07-31T02:26:12;15.70;93.80
21108;DHT22;10712;52.944;9.098;2023-07-31T02:28:37;15.70;93.90
21108;DHT22;10712;52.944;9.098;2023-07-31T02:31:03;15.70;94.00
21108;DHT22;10712;52.944;9.098;2023-07-31T02:33:29;15.70;94.00
21108;DHT22;10712;52.944;9.098;2023-07-31T02:35:55;15.70;94.00
21108;DHT22;10712;52.944;9.098;2023-07-31T02:38:21;15.70;94.10
21108;DHT22;10712;52.944;9.098;2023-07-31T02:40:47;15.70;94.20
21108;DHT22;10712;52.944;9.098;2023-07-31T02:43:13;15.60;94.30
21108;DHT22;10712;52.944;9.098;2023-07-31T02:45:39;15.60;94.30
21108;DHT22;10712;52.944;9.098;2023-07-31T02:48:05;15.60;94.30
21108;DHT22;10712;52.944;9.098;2023-07-31T02:50:31;15.60;94.30
21108;DHT22;10712;52.944;9.098;2023-07-31T02:52:57;15.60;94.30
21108;DHT22;10712;52.944;9.098;2023-07-31T02:55:23;15.60;94.30
21108;DHT22;10712;52.944;9.098;2023-07-31T02:57:49;15.60;94.30
21108;DHT22;10712;52.944;9.098;2023-07-31T03:00:15;15.60;94.30
21108;DHT22;10712;52.944;9.098;2023-07-31T03:02:41;15.60;94.30
21108;DHT22;10712;52.944;9.098;2023-07-31T03:05:07;15.60;94.30
21108;DHT22;10712;52.944;9.098;2023-07-31T03:07:33;15.60;94.30
21108;DHT22;10712;52.944;9.098;2023-07-31T03:09:58;15.60;94.30
21108;DHT22;10712;52.944;9.098;2023-07-31T03:12:24;15.60;94.30
21108;DHT22;10712;52.944;9.098;2023-07-31T03:14:50;15.60;94.30
21108;DHT22;10712;52.944;9.098;2023-07-31T03:17:16;15.60;94.30
21108;DHT22;10712;52.944;9.098;2023-07-31T03:19:41;15.60;94.30
21108;DHT22;10712;52.944;9.098;2023-07-31T03:22:07;15.60;94.30
21108;DHT22;10712;52.944;9.098;2023-07-31T03:24:33;15.60;94.30
21108;DHT22;10712;52.944;9.098;2023-07-31T03:26:59;15.60;94.30
21108;DHT22;10712;52.944;9.098;2023-07-31T03:29:26;15.60;94.30
21108;DHT22;10712;52.944;9.098;2023-07-31T03:31:52;15.60;94.30
21108;DHT22;10712;52.944;9.098;2023-07-31T03:34:17;15.60;94.30
21108;DHT22;10712;52.944;9.098;2023-07-31T03:36:43;15.60;94.30
21108;DHT22;10712;52.944;9.098;2023-07-31T03:39:09;15.60;94.30
21108;DHT22;10712;52.944;9.098;2023-07-31T03:41:35;15.60;94.30
21108;DHT22;10712;52.944;9.098;2023-07-31T03:44:01;15.60;94.30
21108;DHT22;10712;52.944;9.098;2023-07-31T03:46:27;15.60;94.30
21108;DHT22;10712;52.944;9.098;2023-07-31T03:48:54;15.60;94.30
21108;DHT22;10712;52.944;9.098;2023-07-31T03:51:19;15.60;94.30
21108;DHT22;10712;52.944;9.098;2023-07-31T03:53:45;15.60;94.30
21108;DHT22;10712;52.944;9.098;2023-07-31T03:56:11;15.60;94.30
21108;DHT22;10712;52.944;9.098;2023-07-31T03:58:37;15.60;94.30
21108;DHT22;10712;52.944;9.098;2023-07-31T04:01:03;15.60;94.30
21108;DHT22;10712;52.944;9.098;2023-07-31T04:03:29;15.60;94.30
21108;DHT22;10712;52.944;9.098;2023-07-31T04:05:56;15.60;94.30
21108;DHT22;10712;52.944;9.098;2023-07-31T04:08:22;15.60;94.30
21108;DHT22;10712;52.944;9.098;2023-07-31T04:10:48;15.60;94.30
21108;DHT22;10712;52.944;9.098;2023-07-31T04:13:14;15.60;94.30
21108;DHT22;10712;52.944;9.098;2023-07-31T04:15:40;15.60;94.30
21108;DHT22;10712;52.944;9.098;2023-07-31T04:18:06;15.60;94.30
21108;DHT22;10712;52.944;9.098;2023-07-31T04:20:32;15.60;94.30
21108;DHT22;10712;52.944;9.098;2023-07-31T04:22:58;15.60;94.30
21108;DHT22;10712;52.944;9.098;2023-07-31T04:25:24;15.60;94.30
21108;DHT22;10712;52.944;9.098;2023-07-31T04:27:49;15.60;94.30
21108;DHT22;10712;52.944;9.098;2023-07-31T04:30:15;15.60;94.30
21108;DHT22;10712;52.944;9.098;2023-07-31T04:32:41;15.60;94.30
21108;DHT22;10712;52.944;9.098;2023-07-31T04:35:07;15.70;94.30
21108;DHT22;10712;52.944;9.098;2023-07-31T04:37:33;15.70;94.30
21108;DHT22;10712;52.944;9.098;2023-07-31T04:39:59;15.70;94.30
21108;DHT22;10712;52.944;9.098;2023-07-31T04:42:24;15.70;94.30
21108;DHT22;10712;52.944;9.098;2023-07-31T04:44:50;15.70;94.30
21108;DHT22;10712;52.944;9.098;2023-07-31T04:47:18;15.70;94.30
21108;DHT22;10712;52.944;9.098;2023-07-31T04:49:44;15.70;94.30
21108;DHT22;10712;52.944;9.098;2023-07-31T04:52:10;15.70;94.30
21108;DHT22;10712;52.944;9.098;2023-07-31T04:54:36;15.70;94.30
21108;DHT22;10712;52.944;9.098;2023-07-31T04:57:01;15.70;94.30
21108;DHT22;10712;52.944;9.098;2023-07-31T04:59:27;15.70;94.30
21108;DHT22;10712;52.944;9.098;2023-07-31T05:01:53;15.70;94.30
21108;DHT22;10712;52.944;9.098;2023-07-31T05:04:19;15.70;94.30
21108;DHT22;10712;52.944;9.098;2023-07-31T05:06:45;15.70;94.30
21108;DHT22;10712;52.944;9.098;2023-07-31T05:09:10;15.70;94.30
21108;DHT22;10712;52.944;9.098;2023-07-31T05:11:36;15.70;94.30
21108;DHT22;10712;52.944;9.098;2023-07-31T05:14:02;15.70;94.30
21108;DHT22;10712;52.944;9.098;2023-07-31T05:16:28;15.70;94.30
21108;DHT22;10712;52.944;9.098;2023-07-31T05:18:53;15.70;94.30
21108;DHT22;10712;52.944;9.098;2023-07-31T05:21:19;15.70;94.30
21108;DHT22;10712;52.944;9.098;2023-07-31T05:23:45;15.70;94.30
21108;DHT22;10712;52.944;9.098;2023-07-31T05:26:10;15.70;94.30
21108;DHT22;10712;52.944;9.098;2023-07-31T05:28:37;15.70;94.30
21108;DHT22;10712;52.944;9.098;2023-07-31T05:31:04;15.70;94.30
21108;DHT22;10712;52.944;9.098;2023-07-31T05:33:30;15.60;94.30
21108;DHT22;10712;52.944;9.098;2023-07-31T05:35:56;15.70;94.30
21108;DHT22;10712;52.944;9.098;2023-07-31T05:38:22;15.60;94.30
21108;DHT22;10712;52.944;9.098;2023-07-31T05:40:48;15.70;94.30
21108;DHT22;10712;52.944;9.098;2023-07-31T05:43:14;15.70;94.30
21108;DHT22;10712;52.944;9.098;2023-07-31T05:45:42;15.70;94.30
21108;DHT22;10712;52.944;9.098;2023-07-31T05:48:08;15.70;94.30
21108;DHT22;10712;52.944;9.098;2023-07-31T05:50:34;15.70;94.30
21108;DHT22;10712;52.944;9.098;2023-07-31T05:53:00;15.70;94.30
21108;DHT22;10712;52.944;9.098;2023-07-31T05:55:26;15.70;94.30
21108;DHT22;10712;52.944;9.098;2023-07-31T05:57:55;15.70;94.30
21108;DHT22;10712;52.944;9.098;2023-07-31T06:00:20;15.70;94.30
21108;DHT22;10712;52.944;9.098;2023-07-31T06:02:49;15.80;94.30
21108;DHT22;10712;52.944;9.098;2023-07-31T06:05:15;15.80;94.30
21108;DHT22;10712;52.944;9.098;2023-07-31T06:07:41;15.80;94.30
21108;DHT22;10712;52.944;9.098;2023-07-31T06:10:07;15.80;94.30
21108;DHT22;10712;52.944;9.098;2023-07-31T06:12:34;15.80;94.30
21108;DHT22;10712;52.944;9.098;2023-07-31T06:15:01;15.80;94.30
21108;DHT22;10712;52.944;9.098;2023-07-31T06:17:28;15.80;94.30
21108;DHT22;10712;52.944;9.098;2023-07-31T06:19:54;15.90;94.30
21108;DHT22;10712;52.944;9.098;2023-07-31T06:22:20;15.90;94.30
21108;DHT22;10712;52.944;9.098;2023-07-31T06:24:46;15.90;94.30
21108;DHT22;10712;52.944;9.098;2023-07-31T06:27:12;15.90;94.30
21108;DHT22;10712;52.944;9.098;2023-07-31T06:29:38;15.90;94.30
21108;DHT22;10712;52.944;9.098;2023-07-31T06:32:04;15.90;94.30
21108;DHT22;10712;52.944;9.098;2023-07-31T06:34:30;15.90;94.30
21108;DHT22;10712;52.944;9.098;2023-07-31T06:36:56;16.00;94.30
21108;DHT22;10712;52.944;9.098;2023-07-31T06:39:22;16.00;94.30
21108;DHT22;10712;52.944;9.098;2023-07-31T06:41:48;16.00;94.30
21108;DHT22;10712;52.944;9.098;2023-07-31T06:44:14;16.00;94.30
21108;DHT22;10712;52.944;9.098;2023-07-31T06:46:40;16.00;94.30
21108;DHT22;10712;52.944;9.098;2023-07-31T06:49:05;16.00;94.30
21108;DHT22;10712;52.944;9.098;2023-07-31T06:51:31;16.00;94.30
21108;DHT22;10712;52.944;9.098;2023-07-31T06:53:58;16.00;94.30
21108;DHT22;10712;52.944;9.098;2023-07-31T06:56:23;16.00;94.30
21108;DHT22;10712;52.944;9.098;2023-07-31T06:58:49;16.00;94.30
21108;DHT22;10712;52.944;9.098;2023-07-31T07:01:15;16.00;94.30
21108;DHT22;10712;52.944;9.098;2023-07-31T07:03:41;16.00;94.30
21108;DHT22;10712;52.944;9.098;2023-07-31T07:06:07;16.00;94.30
21108;DHT22;10712;52.944;9.098;2023-07-31T07:08:32;16.00;94.30
21108;DHT22;10712;52.944;9.098;2023-07-31T07:10:58;16.10;94.30
21108;DHT22;10712;52.944;9.098;2023-07-31T07:13:24;16.10;94.30
21108;DHT22;10712;52.944;9.098;2023-07-31T07:15:50;16.10;94.30
21108;DHT22;10712;52.944;9.098;2023-07-31T07:18:17;16.10;94.30
21108;DHT22;10712;52.944;9.098;2023-07-31T07:20:50;16.10;94.30
21108;DHT22;10712;52.944;9.098;2023-07-31T07:23:18;16.20;94.30
21108;DHT22;10712;52.944;9.098;2023-07-31T07:25:45;16.20;94.30
21108;DHT22;10712;52.944;9.098;2023-07-31T07:28:12;16.20;94.30
21108;DHT22;10712;52.944;9.098;2023-07-31T07:30:38;16.20;94.30
21108;DHT22;10712;52.944;9.098;2023-07-31T07:33:04;16.30;94.30
21108;DHT22;10712;52.944;9.098;2023-07-31T07:35:29;16.30;94.30
21108;DHT22;10712;52.944;9.098;2023-07-31T07:37:55;16.30;94.30
21108;DHT22;10712;52.944;9.098;2023-07-31T07:40:22;16.30;94.30
21108;DHT22;10712;52.944;9.098;2023-07-31T07:42:49;16.30;94.30
21108;DHT22;10712;52.944;9.098;2023-07-31T07:45:15;16.30;94.30
21108;DHT22;10712;52.944;9.098;2023-07-31T07:47:41;16.30;94.30
21108;DHT22;10712;52.944;9.098;2023-07-31T07:50:08;16.40;94.30
21108;DHT22;10712;52.944;9.098;2023-07-31T07:52:34;16.40;94.30
21108;DHT22;10712;52.944;9.098;2023-07-31T07:54:59;16.40;94.30
21108;DHT22;10712;52.944;9.098;2023-07-31T07:57:26;16.40;94.30
21108;DHT22;10712;52.944;9.098;2023-07-31T07:59:52;16.40;94.30
21108;DHT22;10712;52.944;9.098;2023-07-31T08:02:18;16.40;94.30
21108;DHT22;10712;52.944;9.098;2023-07-31T08:04:44;16.40;94.30
21108;DHT22;10712;52.944;9.098;2023-07-31T08:07:13;16.40;94.30
21108;DHT22;10712;52.944;9.098;2023-07-31T08:09:39;16.40;94.30
21108;DHT22;10712;52.944;9.098;2023-07-31T08:12:05;16.50;94.30
21108;DHT22;10712;52.944;9.098;2023-07-31T08:14:32;16.50;94.30
21108;DHT22;10712;52.944;9.098;2023-07-31T08:16:57;16.50;94.30
21108;DHT22;10712;52.944;9.098;2023-07-31T08:19:23;16.50;94.30
21108;DHT22;10712;52.944;9.098;2023-07-31T08:21:49;16.50;94.30
21108;DHT22;10712;52.944;9.098;2023-07-31T08:24:15;16.50;94.30
21108;DHT22;10712;52.944;9.098;2023-07-31T08:26:42;16.60;94.30
21108;DHT22;10712;52.944;9.098;2023-07-31T08:29:08;16.60;94.30
21108;DHT22;10712;52.944;9.098;2023-07-31T08:31:34;16.60;94.30
21108;DHT22;10712;52.944;9.098;2023-07-31T08:34:00;16.70;94.30
21108;DHT22;10712;52.944;9.098;2023-07-31T08:36:26;16.70;94.30
21108;DHT22;10712;52.944;9.098;2023-07-31T08:38:52;16.70;94.30
21108;DHT22;10712;52.944;9.098;2023-07-31T08:41:18;16.80;94.30
21108;DHT22;10712;52.944;9.098;2023-07-31T08:43:45;16.80;94.30
21108;DHT22;10712;52.944;9.098;2023-07-31T08:46:12;16.80;94.30
21108;DHT22;10712;52.944;9.098;2023-07-31T08:48:41;16.80;94.30
21108;DHT22;10712;52.944;9.098;2023-07-31T08:51:08;16.80;94.30
21108;DHT22;10712;52.944;9.098;2023-07-31T08:53:34;16.90;94.30
21108;DHT22;10712;52.944;9.098;2023-07-31T08:56:01;16.90;94.30
21108;DHT22;10712;52.944;9.098;2023-07-31T08:58:30;16.90;94.30
21108;DHT22;10712;52.944;9.098;2023-07-31T09:00:59;16.90;94.30
21108;DHT22;10712;52.944;9.098;2023-07-31T09:03:26;17.00;94.30
21108;DHT22;10712;52.944;9.098;2023-07-31T09:05:56;17.00;94.30
21108;DHT22;10712;52.944;9.098;2023-07-31T09:08:24;17.00;94.30
21108;DHT22;10712;52.944;9.098;2023-07-31T09:10:54;17.10;94.30
21108;DHT22;10712;52.944;9.098;2023-07-31T09:13:24;17.10;94.30
21108;DHT22;10712;52.944;9.098;2023-07-31T09:15:50;17.10;94.30
21108;DHT22;10712;52.944;9.098;2023-07-31T09:18:16;17.10;94.30
21108;DHT22;10712;52.944;9.098;2023-07-31T09:20:44;17.10;94.30
21108;DHT22;10712;52.944;9.098;2023-07-31T09:23:13;17.20;94.30
21108;DHT22;10712;52.944;9.098;2023-07-31T09:25:43;17.20;94.30
21108;DHT22;10712;52.944;9.098;2023-07-31T09:28:11;17.30;94.30
21108;DHT22;10712;52.944;9.098;2023-07-31T09:30:50;17.30;94.30
21108;DHT22;10712;52.944;9.098;2023-07-31T09:33:18;17.30;94.30
21108;DHT22;10712;52.944;9.098;2023-07-31T09:35:45;17.30;94.30
21108;DHT22;10712;52.944;9.098;2023-07-31T09:38:14;17.30;94.30
21108;DHT22;10712;52.944;9.098;2023-07-31T09:40:43;17.30;94.30
21108;DHT22;10712;52.944;9.098;2023-07-31T09:43:12;17.20;94.30
21108;DHT22;10712;52.944;9.098;2023-07-31T09:45:43;17.20;94.30
21108;DHT22;10712;52.944;9.098;2023-07-31T09:48:14;17.20;94.30
21108;DHT22;10712;52.944;9.098;2023-07-31T09:50:46;17.20;94.30
21108;DHT22;10712;52.944;9.098;2023-07-31T09:53:13;17.20;94.30
21108;DHT22;10712;52.944;9.098;2023-07-31T09:55:41;17.20;94.30
21108;DHT22;10712;52.944;9.098;2023-07-31T09:58:10;17.20;94.30
21108;DHT22;10712;52.944;9.098;2023-07-31T10:00:37;17.20;94.30
21108;DHT22;10712;52.944;9.098;2023-07-31T10:03:09;17.20;94.30
21108;DHT22;10712;52.944;9.098;2023-07-31T10:05:40;17.30;94.30
21108;DHT22;10712;52.944;9.098;2023-07-31T10:08:10;17.30;94.30
21108;DHT22;10712;52.944;9.098;2023-07-31T10:10:44;17.30;94.30
21108;DHT22;10712;52.944;9.098;2023-07-31T10:13:11;17.30;94.30
21108;DHT22;10712;52.944;9.098;2023-07-31T10:15:38;17.30;94.30
21108;DHT22;10712;52.944;9.098;2023-07-31T10:18:06;17.40;94.30
21108;DHT22;10712;52.944;9.098;2023-07-31T10:20:32;17.40;94.30
21108;DHT22;10712;52.944;9.098;2023-07-31T10:22:59;17.40;94.30
21108;DHT22;10712;52.944;9.098;2023-07-31T10:25:29;17.50;94.30
21108;DHT22;10712;52.944;9.098;2023-07-31T10:27:57;17.50;94.30
21108;DHT22;10712;52.944;9.098;2023-07-31T10:30:29;17.50;94.30
21108;DHT22;10712;52.944;9.098;2023-07-31T10:32:58;17.60;94.30
21108;DHT22;10712;52.944;9.098;2023-07-31T10:35:24;17.60;94.30
21108;DHT22;10712;52.944;9.098;2023-07-31T10:37:51;17.60;94.30
21108;DHT22;10712;52.944;9.098;2023-07-31T10:40:25;17.70;94.30
21108;DHT22;10712;52.944;9.098;2023-07-31T10:42:54;17.70;94.30
21108;DHT22;10712;52.944;9.098;2023-07-31T10:45:32;17.70;94.30
21108;DHT22;10712;52.944;9.098;2023-07-31T10:48:03;17.70;94.30
21108;DHT22;10712;52.944;9.098;2023-07-31T10:50:31;17.70;94.30
21108;DHT22;10712;52.944;9.098;2023-07-31T10:53:02;17.80;94.30
21108;DHT22;10712;52.944;9.098;2023-07-31T10:55:42;17.80;94.30
21108;DHT22;10712;52.944;9.098;2023-07-31T10:58:12;17.80;94.30
21108;DHT22;10712;52.944;9.098;2023-07-31T11:00:41;17.80;94.30
21108;DHT22;10712;52.944;9.098;2023-07-31T11:03:12;17.80;94.30
21108;DHT22;10712;52.944;9.098;2023-07-31T11:08:35;17.80;94.30
21108;DHT22;10712;52.944;9.098;2023-07-31T11:11:09;17.80;94.30
21108;DHT22;10712;52.944;9.098;2023-07-31T11:13:45;17.90;94.30
21108;DHT22;10712;52.944;9.098;2023-07-31T11:16:22;17.90;94.30
21108;DHT22;10712;52.944;9.098;2023-07-31T11:18:50;17.90;94.30
21108;DHT22;10712;52.944;9.098;2023-07-31T11:21:22;17.90;94.30
21108;DHT22;10712;52.944;9.098;2023-07-31T11:23:51;17.90;94.30
21108;DHT22;10712;52.944;9.098;2023-07-31T11:26:24;18.00;94.30
21108;DHT22;10712;52.944;9.098;2023-07-31T11:28:51;18.00;94.30
21108;DHT22;10712;52.944;9.098;2023-07-31T11:31:17;18.10;94.30
21108;DHT22;10712;52.944;9.098;2023-07-31T11:33:44;18.10;94.30
21108;DHT22;10712;52.944;9.098;2023-07-31T11:36:20;18.10;94.30
21108;DHT22;10712;52.944;9.098;2023-07-31T11:38:47;18.10;94.30
21108;DHT22;10712;52.944;9.098;2023-07-31T11:41:14;18.10;94.30
21108;DHT22;10712;52.944;9.098;2023-07-31T11:43:42;18.10;94.30
21108;DHT22;10712;52.944;9.098;2023-07-31T11:46:07;18.10;94.30
21108;DHT22;10712;52.944;9.098;2023-07-31T11:48:35;18.20;94.30
21108;DHT22;10712;52.944;9.098;2023-07-31T11:51:08;18.20;94.30
21108;DHT22;10712;52.944;9.098;2023-07-31T11:53:50;18.20;94.30
21108;DHT22;10712;52.944;9.098;2023-07-31T11:56:19;18.20;94.30
21108;DHT22;10712;52.944;9.098;2023-07-31T11:58:57;18.20;94.30
21108;DHT22;10712;52.944;9.098;2023-07-31T12:01:26;18.20;94.30
21108;DHT22;10712;52.944;9.098;2023-07-31T12:03:53;18.30;94.30
21108;DHT22;10712;52.944;9.098;2023-07-31T12:06:20;18.30;94.30
21108;DHT22;10712;52.944;9.098;2023-07-31T12:08:46;18.30;94.30
21108;DHT22;10712;52.944;9.098;2023-07-31T12:11:12;18.40;94.30
21108;DHT22;10712;52.944;9.098;2023-07-31T12:13:44;18.30;94.30
21108;DHT22;10712;52.944;9.098;2023-07-31T12:16:10;18.30;94.30
21108;DHT22;10712;52.944;9.098;2023-07-31T12:18:37;18.30;94.30
21108;DHT22;10712;52.944;9.098;2023-07-31T12:21:06;18.30;94.30
21108;DHT22;10712;52.944;9.098;2023-07-31T12:23:35;18.30;94.30
21108;DHT22;10712;52.944;9.098;2023-07-31T12:26:13;18.20;94.30
21108;DHT22;10712;52.944;9.098;2023-07-31T12:31:18;18.20;94.30
21108;DHT22;10712;52.944;9.098;2023-07-31T12:33:47;18.20;94.30
21108;DHT22;10712;52.944;9.098;2023-07-31T12:36:22;18.20;94.30
21108;DHT22;10712;52.944;9.098;2023-07-31T12:38:52;18.20;94.30
21108;DHT22;10712;52.944;9.098;2023-07-31T12:41:18;18.20;94.30
21108;DHT22;10712;52.944;9.098;2023-07-31T12:43:45;18.20;94.30
21108;DHT22;10712;52.944;9.098;2023-07-31T12:46:11;18.20;94.30
21108;DHT22;10712;52.944;9.098;2023-07-31T12:48:38;18.20;94.30
21108;DHT22;10712;52.944;9.098;2023-07-31T12:51:04;18.20;94.30
21108;DHT22;10712;52.944;9.098;2023-07-31T12:53:32;18.30;94.30
21108;DHT22;10712;52.944;9.098;2023-07-31T12:55:58;18.30;94.30
21108;DHT22;10712;52.944;9.098;2023-07-31T12:58:24;18.30;94.30
21108;DHT22;10712;52.944;9.098;2023-07-31T13:00:51;18.30;94.30
21108;DHT22;10712;52.944;9.098;2023-07-31T13:03:17;18.30;94.30
21108;DHT22;10712;52.944;9.098;2023-07-31T13:05:43;18.30;94.30
21108;DHT22;10712;52.944;9.098;2023-07-31T13:08:08;18.30;94.30
21108;DHT22;10712;52.944;9.098;2023-07-31T13:10:34;18.30;94.30
21108;DHT22;10712;52.944;9.098;2023-07-31T13:13:00;18.20;94.30
21108;DHT22;10712;52.944;9.098;2023-07-31T13:15:26;18.30;94.30
21108;DHT22;10712;52.944;9.098;2023-07-31T13:17:52;18.30;94.30
21108;DHT22;10712;52.944;9.098;2023-07-31T13:20:17;18.30;94.30
21108;DHT22;10712;52.944;9.098;2023-07-31T13:22:43;18.30;94.30
21108;DHT22;10712;52.944;9.098;2023-07-31T13:25:09;18.30;94.30
21108;DHT22;10712;52.944;9.098;2023-07-31T13:27:35;18.30;94.30
21108;DHT22;10712;52.944;9.098;2023-07-31T13:30:02;18.30;94.30
21108;DHT22;10712;52.944;9.098;2023-07-31T13:32:28;18.40;94.30
21108;DHT22;10712;52.944;9.098;2023-07-31T13:34:54;18.40;94.30
21108;DHT22;10712;52.944;9.098;2023-07-31T13:37:20;18.40;94.30
21108;DHT22;10712;52.944;9.098;2023-07-31T13:39:46;18.40;94.30
21108;DHT22;10712;52.944;9.098;2023-07-31T13:42:12;18.40;94.30
21108;DHT22;10712;52.944;9.098;2023-07-31T13:44:38;18.40;94.30
21108;DHT22;10712;52.944;9.098;2023-07-31T13:47:05;18.40;94.30
21108;DHT22;10712;52.944;9.098;2023-07-31T13:49:31;18.40;94.30
21108;DHT22;10712;52.944;9.098;2023-07-31T13:51:58;18.40;94.30
21108;DHT22;10712;52.944;9.098;2023-07-31T13:54:24;18.40;94.30
21108;DHT22;10712;52.944;9.098;2023-07-31T13:56:51;18.40;94.30
21108;DHT22;10712;52.944;9.098;2023-07-31T13:59:17;18.40;94.30
21108;DHT22;10712;52.944;9.098;2023-07-31T14:01:44;18.40;94.30
21108;DHT22;10712;52.944;9.098;2023-07-31T14:04:10;18.30;94.30
21108;DHT22;10712;52.944;9.098;2023-07-31T14:06:36;18.30;94.30
21108;DHT22;10712;52.944;9.098;2023-07-31T14:09:02;18.30;94.30
21108;DHT22;10712;52.944;9.098;2023-07-31T14:11:28;18.30;94.30
21108;DHT22;10712;52.944;9.098;2023-07-31T14:13:55;18.30;94.30
21108;DHT22;10712;52.944;9.098;2023-07-31T14:16:22;18.30;94.30
21108;DHT22;10712;52.944;9.098;2023-07-31T14:18:48;18.30;94.30
21108;DHT22;10712;52.944;9.098;2023-07-31T14:21:14;18.30;94.30
21108;DHT22;10712;52.944;9.098;2023-07-31T14:23:40;18.30;94.30
21108;DHT22;10712;52.944;9.098;2023-07-31T14:26:06;18.30;94.30
21108;DHT22;10712;52.944;9.098;2023-07-31T14:28:32;18.30;94.30
21108;DHT22;10712;52.944;9.098;2023-07-31T14:30:58;18.30;94.30
21108;DHT22;10712;52.944;9.098;2023-07-31T14:33:24;18.30;94.30
21108;DHT22;10712;52.944;9.098;2023-07-31T14:35:51;18.30;94.30
21108;DHT22;10712;52.944;9.098;2023-07-31T14:38:17;18.30;94.30
21108;DHT22;10712;52.944;9.098;2023-07-31T14:40:43;18.30;94.30
21108;DHT22;10712;52.944;9.098;2023-07-31T14:43:09;18.30;94.30
21108;DHT22;10712;52.944;9.098;2023-07-31T14:45:34;18.30;94.30
21108;DHT22;10712;52.944;9.098;2023-07-31T14:48:00;18.30;94.30
21108;DHT22;10712;52.944;9.098;2023-07-31T14:50:26;18.30;94.30
21108;DHT22;10712;52.944;9.098;2023-07-31T14:52:52;18.40;94.30
21108;DHT22;10712;52.944;9.098;2023-07-31T14:55:18;18.40;94.30
21108;DHT22;10712;52.944;9.098;2023-07-31T14:57:44;18.40;94.30
21108;DHT22;10712;52.944;9.098;2023-07-31T15:00:10;18.40;94.30
21108;DHT22;10712;52.944;9.098;2023-07-31T15:02:37;18.40;94.30
21108;DHT22;10712;52.944;9.098;2023-07-31T15:05:04;18.40;94.30
21108;DHT22;10712;52.944;9.098;2023-07-31T15:07:30;18.40;94.30
21108;DHT22;10712;52.944;9.098;2023-07-31T15:09:56;18.50;94.30
21108;DHT22;10712;52.944;9.098;2023-07-31T15:12:22;18.50;94.30
21108;DHT22;10712;52.944;9.098;2023-07-31T15:14:48;18.50;94.30
21108;DHT22;10712;52.944;9.098;2023-07-31T15:17:15;18.60;94.30
21108;DHT22;10712;52.944;9.098;2023-07-31T15:19:41;18.60;94.20
21108;DHT22;10712;52.944;9.098;2023-07-31T15:22:07;18.60;94.10
21108;DHT22;10712;52.944;9.098;2023-07-31T15:24:33;18.60;94.10
21108;DHT22;10712;52.944;9.098;2023-07-31T15:26:59;18.60;94.00
21108;DHT22;10712;52.944;9.098;2023-07-31T15:29:27;18.60;93.80
21108;DHT22;10712;52.944;9.098;2023-07-31T15:31:54;18.60;93.70
21108;DHT22;10712;52.944;9.098;2023-07-31T15:34:20;18.60;93.60
21108;DHT22;10712;52.944;9.098;2023-07-31T15:36:46;18.60;93.60
21108;DHT22;10712;52.944;9.098;2023-07-31T15:39:12;18.60;93.60
21108;DHT22;10712;52.944;9.098;2023-07-31T15:41:38;18.60;93.70
21108;DHT22;10712;52.944;9.098;2023-07-31T15:44:05;18.60;93.80
21108;DHT22;10712;52.944;9.098;2023-07-31T15:46:31;18.60;93.80
21108;DHT22;10712;52.944;9.098;2023-07-31T15:48:57;18.60;93.80